KPGV

Pitt-Greenville Airport

Greenville, North Carolina, USA
METAR KPGV 200525Z AUTO 00000KT 10SM CLR 25/22 A2990 RMK AO2
Observed Flight Rules
Jun-20 @ 05:25 UTC (16 minutes ago) Visual Flight Rules
Visibility Clouds
10 miles
  • Clear skies
Temperatures Readings
Current 25°C / 77°F
Dewpoint 22°C / 72°F
Humidity 83%
Altimeter 29.9" Hg
Pressure 1013 hPa
Elevation 8
METAR KPGV 200525Z AUTO 00000KT 10SM CLR 25/22 A2990 RMK AO2
Observed Flight Rules
Jun-20 @ 05:25 UTC
(16 minutes ago)
VFR
Clouds
  • Clear skies
Temperature Dewpoint
25°C / 77°F 22°C / 72°F
Humidity Altimeter Pressure
83% 29.9" Hg 1013 hPa